Time;durP1;ratioP1;P1;durP2;ratioP2;P2;SDS_P1;SDS_P2;PMS_P1;PMS_P2;Temp;Humidity;BMP_temperature;BMP_pressure;BME280_temperature;BME280_humidity;BME280_pressure;Samples;Min_cycle;Max_cycle;Signal;HPM_P1;HPM_P2
2023/08/13 00:00:59;;;;;;;6.25;5.35;;;;;;;;;;5042009;28;20432;-75
2023/08/13 00:03:24;;;;;;;6.05;4.85;;;;;;;;;;5054120;28;20038;-74
2023/08/13 00:05:49;;;;;;;5.70;4.85;;;;;;;;;;5042295;28;20036;-79
2023/08/13 00:08:15;;;;;;;7.20;5.00;;;;;;;;;;5060265;28;20068;-75
2023/08/13 00:10:40;;;;;;;5.97;5.32;;;;;;;;;;5047147;28;20063;-75
2023/08/13 00:13:05;;;;;;;5.78;5.18;;;;;;;;;;5053460;28;20127;-75
2023/08/13 00:15:31;;;;;;;5.10;4.60;;;;;;;;;;5056748;28;20053;-75
2023/08/13 00:17:56;;;;;;;4.97;4.47;;;;;;;;;;5057121;28;20067;-75
2023/08/13 00:20:22;;;;;;;6.18;4.70;;;;;;;;;;5059183;28;20040;-75
2023/08/13 00:22:47;;;;;;;7.63;5.53;;;;;;;;;;5064018;28;20032;-74
2023/08/13 00:25:12;;;;;;;5.53;4.65;;;;;;;;;;5062255;28;20020;-75
2023/08/13 00:27:37;;;;;;;4.88;4.47;;;;;;;;;;5059979;28;20086;-75
2023/08/13 00:30:03;;;;;;;5.50;5.00;;;;;;;;;;5041887;28;20033;-76
2023/08/13 00:32:28;;;;;;;7.25;4.38;;;;;;;;;;5060011;28;20038;-76
2023/08/13 00:34:54;;;;;;;4.88;4.32;;;;;;;;;;5044352;28;20052;-75
2023/08/13 00:37:19;;;;;;;9.07;4.43;;;;;;;;;;5058900;28;20451;-74
2023/08/13 00:39:45;;;;;;;5.25;4.60;;;;;;;;;;5058614;28;20609;-75
2023/08/13 00:42:10;;;;;;;5.95;4.40;;;;;;;;;;5062773;28;20028;-76
2023/08/13 00:44:35;;;;;;;6.35;4.68;;;;;;;;;;5050374;28;20409;-76
2023/08/13 00:47:01;;;;;;;4.78;4.25;;;;;;;;;;5050341;28;20028;-74
2023/08/13 00:49:26;;;;;;;7.82;4.85;;;;;;;;;;5051940;28;20029;-74
2023/08/13 00:51:52;;;;;;;5.63;4.55;;;;;;;;;;5051836;28;20017;-77
2023/08/13 00:54:17;;;;;;;5.07;4.50;;;;;;;;;;5058954;28;20417;-75
2023/08/13 00:56:44;;;;;;;5.68;4.28;;;;;;;;;;5060898;28;20036;-75
2023/08/13 00:59:10;;;;;;;5.05;4.65;;;;;;;;;;5052342;28;20024;-74
2023/08/13 01:01:35;;;;;;;4.95;4.45;;;;;;;;;;5039490;28;20444;-74
2023/08/13 01:04:00;;;;;;;6.65;4.78;;;;;;;;;;5046984;28;20029;-74
2023/08/13 01:06:32;;;;;;;5.85;4.72;;;;;;;;;;5050207;28;20068;-74
2023/08/13 01:09:16;;;;;;;6.82;4.43;;;;;;;;;;5061383;28;20125;-76
2023/08/13 01:11:59;;;;;;;6.03;5.25;;;;;;;;;;5060051;28;20024;-76
2023/08/13 01:14:25;;;;;;;6.18;4.38;;;;;;;;;;5061652;28;20033;-76
2023/08/13 01:16:51;;;;;;;5.25;4.65;;;;;;;;;;5045874;28;20096;-76
2023/08/13 01:19:17;;;;;;;7.75;4.90;;;;;;;;;;5059772;28;20032;-74
2023/08/13 01:21:42;;;;;;;4.95;4.55;;;;;;;;;;5058828;28;20035;-74
2023/08/13 01:24:08;;;;;;;4.20;3.90;;;;;;;;;;5061257;28;20319;-75
2023/08/13 01:26:57;;;;;;;5.03;4.55;;;;;;;;;;5057796;28;20017;-74
2023/08/13 01:29:30;;;;;;;5.97;4.77;;;;;;;;;;5057230;28;20108;-75
2023/08/13 01:31:57;;;;;;;6.50;4.25;;;;;;;;;;5054466;28;20032;-74
2023/08/13 01:34:23;;;;;;;4.68;4.28;;;;;;;;;;5052108;28;20020;-74
2023/08/13 01:36:48;;;;;;;4.45;4.07;;;;;;;;;;5052443;28;20016;-74
2023/08/13 01:39:14;;;;;;;8.05;4.93;;;;;;;;;;5063706;28;20052;-75
2023/08/13 01:41:58;;;;;;;6.78;4.65;;;;;;;;;;5059801;28;20335;-74
2023/08/13 01:44:23;;;;;;;6.50;4.60;;;;;;;;;;5058644;28;20416;-74
2023/08/13 01:46:49;;;;;;;4.82;4.32;;;;;;;;;;5046718;28;20118;-74
2023/08/13 01:49:14;;;;;;;4.72;4.32;;;;;;;;;;5044286;28;20049;-75
2023/08/13 01:51:39;;;;;;;5.03;4.53;;;;;;;;;;5048515;28;20103;-74
2023/08/13 01:54:05;;;;;;;5.18;4.68;;;;;;;;;;5059706;28;20048;-74
2023/08/13 01:56:30;;;;;;;6.13;5.03;;;;;;;;;;5062134;28;20108;-74
2023/08/13 01:58:56;;;;;;;5.07;4.68;;;;;;;;;;5052587;28;20035;-76
2023/08/13 02:01:21;;;;;;;5.53;4.70;;;;;;;;;;5048271;28;20065;-75
2023/08/13 02:03:46;;;;;;;5.25;4.78;;;;;;;;;;5042642;28;20032;-73
2023/08/13 02:06:11;;;;;;;6.15;4.60;;;;;;;;;;5060638;28;20032;-75
2023/08/13 02:08:37;;;;;;;9.32;4.88;;;;;;;;;;5055986;28;20036;-75
2023/08/13 02:11:02;;;;;;;6.25;5.18;;;;;;;;;;5042881;28;20119;-74
2023/08/13 02:13:28;;;;;;;6.00;4.63;;;;;;;;;;5061269;28;20032;-76
2023/08/13 02:15:53;;;;;;;5.70;5.10;;;;;;;;;;5074820;28;20031;-74
2023/08/13 02:18:18;;;;;;;5.53;5.00;;;;;;;;;;5054776;28;20037;-73
2023/08/13 02:20:44;;;;;;;5.60;4.68;;;;;;;;;;5044380;28;20394;-75
2023/08/13 02:23:09;;;;;;;4.82;4.40;;;;;;;;;;5057492;28;20029;-74
2023/08/13 02:25:34;;;;;;;5.75;5.13;;;;;;;;;;5044057;28;20147;-74
2023/08/13 02:28:00;;;;;;;5.47;4.97;;;;;;;;;;5059488;28;20057;-74
2023/08/13 02:30:25;;;;;;;9.90;4.93;;;;;;;;;;5040823;28;20029;-74
2023/08/13 02:32:50;;;;;;;5.70;5.20;;;;;;;;;;5056807;28;20043;-74
2023/08/13 02:35:16;;;;;;;6.10;4.97;;;;;;;;;;5042447;28;20025;-74
2023/08/13 02:37:41;;;;;;;4.65;4.30;;;;;;;;;;5058971;28;20107;-75
2023/08/13 02:40:07;;;;;;;5.90;4.50;;;;;;;;;;5056868;28;20049;-75
2023/08/13 02:42:32;;;;;;;6.15;4.93;;;;;;;;;;5042570;28;20074;-76
2023/08/13 02:44:57;;;;;;;5.78;5.22;;;;;;;;;;5051566;28;20064;-74
2023/08/13 02:47:24;;;;;;;6.28;4.50;;;;;;;;;;5040397;28;20492;-74
2023/08/13 02:49:49;;;;;;;5.82;5.07;;;;;;;;;;5043008;28;20112;-74
2023/08/13 02:52:15;;;;;;;5.50;4.22;;;;;;;;;;5054724;28;20111;-76
2023/08/13 02:54:40;;;;;;;4.95;4.35;;;;;;;;;;5057879;28;20034;-74
2023/08/13 02:57:06;;;;;;;5.55;4.53;;;;;;;;;;5048701;28;20049;-75
2023/08/13 02:59:31;;;;;;;4.82;4.32;;;;;;;;;;5038479;28;20044;-74
2023/08/13 03:01:56;;;;;;;9.35;4.80;;;;;;;;;;5051992;28;20031;-74
2023/08/13 03:04:22;;;;;;;5.22;4.25;;;;;;;;;;5057195;28;20028;-75
2023/08/13 03:06:47;;;;;;;5.45;4.70;;;;;;;;;;5057565;28;20021;-74
2023/08/13 03:09:18;;;;;;;5.10;4.60;;;;;;;;;;5048452;28;20029;-74
2023/08/13 03:11:43;;;;;;;5.35;4.85;;;;;;;;;;5052545;28;20458;-75
2023/08/13 03:14:09;;;;;;;7.70;4.65;;;;;;;;;;5042898;28;20121;-75
2023/08/13 03:16:34;;;;;;;5.38;4.50;;;;;;;;;;5055612;28;20021;-76
2023/08/13 03:19:00;;;;;;;4.97;4.22;;;;;;;;;;5049840;28;20025;-75
2023/08/13 03:21:25;;;;;;;5.97;4.97;;;;;;;;;;5051360;28;20021;-76
2023/08/13 03:23:51;;;;;;;6.55;4.70;;;;;;;;;;5072394;28;20016;-75
2023/08/13 03:26:16;;;;;;;5.93;5.43;;;;;;;;;;5048323;28;20047;-74
2023/08/13 03:28:41;;;;;;;5.57;5.07;;;;;;;;;;5046207;28;20450;-74
2023/08/13 03:31:07;;;;;;;5.57;5.13;;;;;;;;;;5052494;28;20385;-74
2023/08/13 03:33:32;;;;;;;8.25;5.32;;;;;;;;;;5056085;28;20452;-75
2023/08/13 03:35:57;;;;;;;5.30;4.90;;;;;;;;;;5041612;28;20452;-74
2023/08/13 03:38:23;;;;;;;6.07;4.82;;;;;;;;;;5057624;28;20149;-75
2023/08/13 03:40:48;;;;;;;5.38;4.90;;;;;;;;;;5045303;28;20416;-74
2023/08/13 03:43:13;;;;;;;5.53;5.00;;;;;;;;;;5050750;28;20039;-74
2023/08/13 03:45:39;;;;;;;5.20;4.70;;;;;;;;;;5037610;28;20016;-74
2023/08/13 03:48:04;;;;;;;4.90;4.50;;;;;;;;;;5057582;28;20028;-75
2023/08/13 03:50:29;;;;;;;6.30;4.63;;;;;;;;;;5036034;28;20338;-74
2023/08/13 03:52:55;;;;;;;7.53;5.05;;;;;;;;;;5058171;28;20036;-76
2023/08/13 03:55:20;;;;;;;5.97;4.85;;;;;;;;;;5059148;28;20032;-74
2023/08/13 03:57:45;;;;;;;4.88;4.50;;;;;;;;;;5059254;28;20359;-74
2023/08/13 04:00:11;;;;;;;8.65;4.90;;;;;;;;;;5039961;28;20036;-74
2023/08/13 04:02:37;;;;;;;6.60;4.95;;;;;;;;;;5040648;28;20029;-75
2023/08/13 04:05:04;;;;;;;6.88;5.07;;;;;;;;;;5041183;28;20480;-75
2023/08/13 04:07:30;;;;;;;8.68;5.30;;;;;;;;;;5057389;28;20020;-74
2023/08/13 04:09:55;;;;;;;6.68;5.10;;;;;;;;;;5058205;28;20051;-74
2023/08/13 04:12:20;;;;;;;5.30;4.80;;;;;;;;;;5056778;28;20028;-74
2023/08/13 04:14:46;;;;;;;5.50;5.00;;;;;;;;;;5054495;28;20056;-75
2023/08/13 04:17:11;;;;;;;5.60;4.57;;;;;;;;;;5038738;28;20028;-75
2023/08/13 04:19:36;;;;;;;6.25;5.30;;;;;;;;;;5047196;28;20055;-76
2023/08/13 04:22:02;;;;;;;6.28;5.65;;;;;;;;;;5058295;28;20035;-75
2023/08/13 04:24:27;;;;;;;7.80;5.25;;;;;;;;;;5054163;28;20031;-75
2023/08/13 04:26:53;;;;;;;12.25;10.00;;;;;;;;;;5043589;28;20451;-76
2023/08/13 04:29:18;;;;;;;6.95;6.10;;;;;;;;;;5043420;28;20024;-74
2023/08/13 04:31:44;;;;;;;7.15;5.20;;;;;;;;;;5040585;28;20093;-74
2023/08/13 04:34:09;;;;;;;7.32;5.20;;;;;;;;;;5040563;28;20127;-75
2023/08/13 04:36:36;;;;;;;6.40;5.80;;;;;;;;;;5043736;28;20032;-77
2023/08/13 04:39:01;;;;;;;6.82;6.13;;;;;;;;;;5043328;28;20043;-76
2023/08/13 04:41:26;;;;;;;7.75;6.95;;;;;;;;;;5044519;28;20414;-76
2023/08/13 04:43:52;;;;;;;7.63;6.13;;;;;;;;;;5044948;28;20464;-74
2023/08/13 04:46:17;;;;;;;7.97;6.07;;;;;;;;;;5044217;28;20396;-75
2023/08/13 04:48:43;;;;;;;6.88;6.20;;;;;;;;;;5040262;28;20296;-76
2023/08/13 04:51:09;;;;;;;8.63;6.20;;;;;;;;;;5043219;28;20032;-74
2023/08/13 04:53:35;;;;;;;6.43;5.93;;;;;;;;;;5042154;28;20764;-77
2023/08/13 04:56:00;;;;;;;6.93;6.25;;;;;;;;;;5042810;28;20017;-74
2023/08/13 04:58:25;;;;;;;7.43;6.82;;;;;;;;;;5045202;28;20032;-75
2023/08/13 05:00:51;;;;;;;6.57;5.97;;;;;;;;;;5039013;28;20040;-75
2023/08/13 05:03:16;;;;;;;6.45;5.85;;;;;;;;;;5035772;28;20033;-76
2023/08/13 05:05:41;;;;;;;6.10;5.55;;;;;;;;;;5035401;28;20040;-76
2023/08/13 05:08:07;;;;;;;7.22;5.72;;;;;;;;;;5039609;28;20103;-75
2023/08/13 05:10:32;;;;;;;7.82;5.60;;;;;;;;;;5040807;28;20028;-74
2023/08/13 05:12:58;;;;;;;6.18;5.57;;;;;;;;;;5039380;28;20033;-74
2023/08/13 05:15:23;;;;;;;7.13;5.60;;;;;;;;;;5040465;28;20017;-74
2023/08/13 05:17:49;;;;;;;6.82;5.55;;;;;;;;;;5039640;28;20039;-73
2023/08/13 05:20:14;;;;;;;5.93;5.43;;;;;;;;;;5046192;28;20067;-74
2023/08/13 05:22:39;;;;;;;6.72;5.93;;;;;;;;;;5044324;28;20040;-75
2023/08/13 05:25:05;;;;;;;6.88;5.63;;;;;;;;;;5048466;28;20024;-75
2023/08/13 05:27:30;;;;;;;9.05;5.93;;;;;;;;;;5042639;28;20052;-77
2023/08/13 05:29:56;;;;;;;6.07;5.40;;;;;;;;;;5050396;28;20324;-74
2023/08/13 05:32:22;;;;;;;6.05;5.38;;;;;;;;;;5057503;28;20049;-73
2023/08/13 05:34:48;;;;;;;6.55;6.03;;;;;;;;;;5049711;28;20036;-73
2023/08/13 05:37:13;;;;;;;5.88;5.38;;;;;;;;;;5049945;28;20029;-76
2023/08/13 05:39:39;;;;;;;8.40;5.50;;;;;;;;;;5057397;28;20052;-73
2023/08/13 05:42:04;;;;;;;6.00;5.43;;;;;;;;;;5033953;28;20116;-77
2023/08/13 05:44:30;;;;;;;5.75;5.25;;;;;;;;;;5040229;28;20448;-74
2023/08/13 05:46:55;;;;;;;8.50;6.82;;;;;;;;;;5055760;28;20028;-75
2023/08/13 05:49:20;;;;;;;21.67;15.00;;;;;;;;;;5054766;28;20029;-76
2023/08/13 05:51:48;;;;;;;25.98;18.33;;;;;;;;;;5040500;28;20111;-76
2023/08/13 05:54:13;;;;;;;26.17;16.55;;;;;;;;;;5041756;28;20101;-74
2023/08/13 05:56:39;;;;;;;19.63;13.90;;;;;;;;;;5047250;28;20043;-77
2023/08/13 05:59:04;;;;;;;12.27;9.50;;;;;;;;;;5046866;28;20085;-77
2023/08/13 06:01:29;;;;;;;9.70;8.25;;;;;;;;;;5046572;28;20028;-77
2023/08/13 06:03:55;;;;;;;8.35;6.60;;;;;;;;;;5040142;28;20135;-77
2023/08/13 06:06:21;;;;;;;6.60;5.82;;;;;;;;;;5037346;28;20135;-75
2023/08/13 06:08:47;;;;;;;6.25;5.60;;;;;;;;;;5041827;28;20021;-75
2023/08/13 06:11:13;;;;;;;6.28;5.53;;;;;;;;;;5035997;28;20057;-76
2023/08/13 06:13:38;;;;;;;6.28;5.13;;;;;;;;;;5038976;28;20107;-78
2023/08/13 06:16:04;;;;;;;6.18;5.10;;;;;;;;;;5041958;28;20031;-76
2023/08/13 06:18:30;;;;;;;7.60;4.97;;;;;;;;;;5039730;28;20060;-76
2023/08/13 06:20:55;;;;;;;5.53;5.03;;;;;;;;;;5036892;28;20032;-75
2023/08/13 06:23:20;;;;;;;6.18;4.70;;;;;;;;;;5038656;28;20028;-75
2023/08/13 06:25:46;;;;;;;5.68;4.50;;;;;;;;;;5039666;28;20032;-75
2023/08/13 06:28:12;;;;;;;5.85;5.28;;;;;;;;;;5041531;28;20040;-75
2023/08/13 06:30:37;;;;;;;6.65;5.22;;;;;;;;;;5037383;28;20017;-77
2023/08/13 06:33:03;;;;;;;6.57;4.68;;;;;;;;;;5040033;28;20031;-76
2023/08/13 06:35:29;;;;;;;5.45;4.95;;;;;;;;;;5039805;28;20039;-76
2023/08/13 06:37:54;;;;;;;5.05;4.63;;;;;;;;;;5054847;28;20024;-77
2023/08/13 06:40:20;;;;;;;5.68;4.70;;;;;;;;;;5043890;28;20564;-77
2023/08/13 06:42:45;;;;;;;6.57;5.10;;;;;;;;;;5056599;28;20028;-76
2023/08/13 06:45:10;;;;;;;6.70;5.07;;;;;;;;;;5061435;28;20128;-74
2023/08/13 06:47:36;;;;;;;7.28;5.13;;;;;;;;;;5051071;28;20100;-75
2023/08/13 06:50:01;;;;;;;8.85;5.65;;;;;;;;;;5045327;28;20032;-73
2023/08/13 06:52:27;;;;;;;5.88;5.35;;;;;;;;;;5057267;28;20403;-74
2023/08/13 06:54:52;;;;;;;5.35;4.65;;;;;;;;;;5042046;28;20109;-75
2023/08/13 06:57:17;;;;;;;5.72;5.22;;;;;;;;;;5053111;28;20028;-77
2023/08/13 06:59:43;;;;;;;7.63;5.45;;;;;;;;;;5045917;28;20063;-73
2023/08/13 07:02:08;;;;;;;4.88;4.38;;;;;;;;;;5051345;28;20461;-75
2023/08/13 07:04:33;;;;;;;4.90;4.50;;;;;;;;;;5047466;28;20669;-75
2023/08/13 07:06:59;;;;;;;4.55;4.15;;;;;;;;;;5057035;28;20478;-74
2023/08/13 07:09:27;;;;;;;4.18;3.67;;;;;;;;;;5041625;28;20035;-78
2023/08/13 07:11:52;;;;;;;4.05;3.65;;;;;;;;;;5038207;28;20017;-75
2023/08/13 07:14:18;;;;;;;5.00;3.80;;;;;;;;;;5039539;28;20032;-74
2023/08/13 07:16:43;;;;;;;3.47;3.17;;;;;;;;;;5053575;28;20032;-73
2023/08/13 07:19:08;;;;;;;3.92;3.58;;;;;;;;;;5056485;28;20028;-74
2023/08/13 07:21:34;;;;;;;5.30;3.90;;;;;;;;;;5056856;28;20086;-74
2023/08/13 07:23:59;;;;;;;4.18;3.78;;;;;;;;;;5057999;28;20052;-76
2023/08/13 07:26:24;;;;;;;5.35;4.68;;;;;;;;;;5061049;28;20063;-73
2023/08/13 07:28:50;;;;;;;6.00;4.80;;;;;;;;;;5044892;28;20112;-75
2023/08/13 07:31:18;;;;;;;6.95;4.63;;;;;;;;;;5050763;28;20113;-74
2023/08/13 07:33:43;;;;;;;10.02;4.82;;;;;;;;;;5054581;28;20028;-74
2023/08/13 07:36:09;;;;;;;4.95;4.20;;;;;;;;;;5043779;28;20099;-74
2023/08/13 07:38:34;;;;;;;5.10;4.60;;;;;;;;;;5055030;28;20338;-76
2023/08/13 07:41:01;;;;;;;7.57;4.10;;;;;;;;;;5055146;28;20045;-76
2023/08/13 07:43:27;;;;;;;6.03;4.95;;;;;;;;;;5055154;28;20036;-74
2023/08/13 07:45:53;;;;;;;6.63;4.20;;;;;;;;;;5042127;28;20460;-73
2023/08/13 07:48:18;;;;;;;5.55;4.85;;;;;;;;;;5047193;28;20032;-73
2023/08/13 07:50:44;;;;;;;4.40;4.00;;;;;;;;;;5051329;28;20525;-73
2023/08/13 07:53:09;;;;;;;4.45;4.05;;;;;;;;;;5056634;28;20135;-73
2023/08/13 07:55:34;;;;;;;7.88;4.25;;;;;;;;;;5056854;28;20025;-75
2023/08/13 07:58:00;;;;;;;4.93;4.43;;;;;;;;;;5058598;28;20107;-74
2023/08/13 08:00:26;;;;;;;4.68;4.28;;;;;;;;;;5046472;28;20428;-73
2023/08/13 08:02:51;;;;;;;5.80;4.38;;;;;;;;;;5039530;28;20040;-74
2023/08/13 08:05:17;;;;;;;6.15;4.65;;;;;;;;;;5042290;28;21308;-74
2023/08/13 08:07:42;;;;;;;5.70;4.75;;;;;;;;;;5054092;28;20021;-75
2023/08/13 08:10:09;;;;;;;5.90;4.63;;;;;;;;;;5057556;28;20359;-74
2023/08/13 08:12:34;;;;;;;5.30;4.85;;;;;;;;;;5055421;28;20024;-73
2023/08/13 08:14:59;;;;;;;5.00;4.50;;;;;;;;;;5058382;28;20356;-75
2023/08/13 08:17:25;;;;;;;5.60;5.07;;;;;;;;;;5039698;28;20025;-73
2023/08/13 08:19:50;;;;;;;8.18;5.88;;;;;;;;;;5058836;28;20371;-74
2023/08/13 08:22:15;;;;;;;7.75;5.70;;;;;;;;;;5056703;28;20024;-75
2023/08/13 08:24:41;;;;;;;5.95;5.22;;;;;;;;;;5056850;28;20494;-75
2023/08/13 08:27:07;;;;;;;6.75;5.05;;;;;;;;;;5043496;28;20496;-77
2023/08/13 08:29:33;;;;;;;5.20;4.80;;;;;;;;;;5050441;28;20111;-72
2023/08/13 08:31:58;;;;;;;5.85;5.25;;;;;;;;;;5044765;28;20154;-72
2023/08/13 08:34:24;;;;;;;5.40;4.78;;;;;;;;;;5058091;28;20035;-72
2023/08/13 08:36:49;;;;;;;5.93;4.95;;;;;;;;;;5056406;28;20017;-73
2023/08/13 08:39:14;;;;;;;6.32;4.80;;;;;;;;;;5056587;28;20040;-74
2023/08/13 08:41:42;;;;;;;5.70;5.20;;;;;;;;;;5057148;28;20020;-73
2023/08/13 08:44:09;;;;;;;5.40;4.90;;;;;;;;;;5040949;28;20036;-73
2023/08/13 08:46:35;;;;;;;6.10;4.70;;;;;;;;;;5044672;28;20031;-71
2023/08/13 08:49:00;;;;;;;5.35;4.75;;;;;;;;;;5041471;28;20025;-76
2023/08/13 08:51:25;;;;;;;5.25;4.75;;;;;;;;;;5046143;28;20552;-73
2023/08/13 08:53:51;;;;;;;6.85;4.75;;;;;;;;;;5059631;28;20087;-72
2023/08/13 08:56:16;;;;;;;5.40;4.53;;;;;;;;;;5059958;28;20079;-76
2023/08/13 08:58:42;;;;;;;4.40;4.07;;;;;;;;;;5062811;28;20047;-73
2023/08/13 09:01:07;;;;;;;4.50;4.10;;;;;;;;;;5058470;28;20395;-72
2023/08/13 09:03:32;;;;;;;5.22;4.70;;;;;;;;;;5041707;28;20043;-70
2023/08/13 09:05:58;;;;;;;5.70;5.20;;;;;;;;;;5045099;28;20397;-72
2023/08/13 09:08:24;;;;;;;5.95;4.93;;;;;;;;;;5044880;28;20073;-72
2023/08/13 09:10:49;;;;;;;5.85;5.35;;;;;;;;;;5042653;28;20052;-74
2023/08/13 09:13:15;;;;;;;5.80;5.30;;;;;;;;;;5045174;28;20063;-73
2023/08/13 09:15:49;;;;;;;8.43;5.55;;;;;;;;;;5046943;28;20056;-74
2023/08/13 09:18:15;;;;;;;6.80;5.13;;;;;;;;;;5042396;28;20032;-72
2023/08/13 09:20:44;;;;;;;5.90;4.95;;;;;;;;;;5037134;28;20043;-74
2023/08/13 09:23:10;;;;;;;5.28;4.68;;;;;;;;;;5039846;28;20025;-71
2023/08/13 09:25:35;;;;;;;4.90;4.50;;;;;;;;;;5038255;28;20047;-72
2023/08/13 09:28:01;;;;;;;5.72;5.10;;;;;;;;;;5039111;28;20176;-74
2023/08/13 09:30:31;;;;;;;5.20;4.63;;;;;;;;;;5041822;28;20036;-76
2023/08/13 09:32:57;;;;;;;5.20;4.70;;;;;;;;;;5039614;28;20037;-72
2023/08/13 09:35:22;;;;;;;6.05;4.93;;;;;;;;;;5039789;28;20087;-73
2023/08/13 09:37:48;;;;;;;5.50;4.32;;;;;;;;;;5039025;28;20447;-75
2023/08/13 09:40:13;;;;;;;6.55;4.57;;;;;;;;;;5038859;28;20063;-73
2023/08/13 09:42:39;;;;;;;4.78;4.35;;;;;;;;;;5040968;28;20028;-76
2023/08/13 09:45:05;;;;;;;6.50;4.35;;;;;;;;;;5045076;28;20033;-74
2023/08/13 09:47:32;;;;;;;7.40;4.90;;;;;;;;;;5038400;28;20412;-74
2023/08/13 09:49:58;;;;;;;5.20;4.70;;;;;;;;;;5041943;28;20039;-75
2023/08/13 09:52:26;;;;;;;5.15;4.72;;;;;;;;;;5041836;28;20033;-75
2023/08/13 09:55:04;;;;;;;5.50;4.95;;;;;;;;;;5054593;28;20028;-74
2023/08/13 09:57:31;;;;;;;4.90;4.50;;;;;;;;;;5063320;28;20051;-73
2023/08/13 09:59:57;;;;;;;5.50;4.45;;;;;;;;;;5048090;28;20060;-73
2023/08/13 10:02:23;;;;;;;5.15;4.65;;;;;;;;;;5038643;28;20474;-75
2023/08/13 10:04:50;;;;;;;6.70;4.55;;;;;;;;;;5042464;28;20017;-74
2023/08/13 10:07:16;;;;;;;4.97;4.47;;;;;;;;;;5040739;28;20051;-74
2023/08/13 10:09:42;;;;;;;5.50;4.40;;;;;;;;;;5037289;28;20036;-71
2023/08/13 10:12:11;;;;;;;6.18;4.63;;;;;;;;;;5038395;28;20036;-74
2023/08/13 10:14:37;;;;;;;5.45;4.93;;;;;;;;;;5040346;28;20112;-75
2023/08/13 10:17:05;;;;;;;5.93;5.13;;;;;;;;;;5040607;28;20403;-74
2023/08/13 10:19:31;;;;;;;5.68;4.85;;;;;;;;;;5040988;28;20127;-72
2023/08/13 10:21:57;;;;;;;9.00;5.05;;;;;;;;;;5041661;28;20370;-74
2023/08/13 10:24:23;;;;;;;5.32;4.82;;;;;;;;;;5039256;28;20044;-73
2023/08/13 10:26:48;;;;;;;5.28;4.78;;;;;;;;;;5041645;28;20452;-74
2023/08/13 10:29:15;;;;;;;5.38;4.70;;;;;;;;;;5038718;28;20035;-74
2023/08/13 10:31:48;;;;;;;5.65;4.30;;;;;;;;;;5041957;28;20036;-73
2023/08/13 10:34:14;;;;;;;4.70;4.30;;;;;;;;;;5041161;28;20113;-77
2023/08/13 10:36:49;;;;;;;5.88;4.85;;;;;;;;;;5043929;28;20024;-75
2023/08/13 10:39:30;;;;;;;5.13;4.70;;;;;;;;;;5044001;28;20032;-74
2023/08/13 10:41:56;;;;;;;6.45;4.60;;;;;;;;;;5043326;28;20452;-77
2023/08/13 10:44:31;;;;;;;9.32;4.75;;;;;;;;;;5040066;28;20039;-77
2023/08/13 10:46:57;;;;;;;4.63;4.30;;;;;;;;;;5044998;28;20039;-75
2023/08/13 10:49:24;;;;;;;5.38;4.50;;;;;;;;;;5038901;28;20028;-77
2023/08/13 10:51:49;;;;;;;6.57;4.50;;;;;;;;;;5040886;28;20240;-74
2023/08/13 10:54:15;;;;;;;6.53;4.70;;;;;;;;;;5037122;28;20124;-76
2023/08/13 10:56:45;;;;;;;5.50;5.00;;;;;;;;;;5037375;28;20125;-76
2023/08/13 10:59:11;;;;;;;5.00;4.50;;;;;;;;;;5040385;28;20032;-75
2023/08/13 11:01:56;;;;;;;6.28;4.95;;;;;;;;;;5038898;28;20062;-77
2023/08/13 11:04:21;;;;;;;5.13;4.63;;;;;;;;;;5036425;28;20032;-76
2023/08/13 11:06:47;;;;;;;5.78;4.97;;;;;;;;;;5037713;28;20032;-77
2023/08/13 11:09:12;;;;;;;5.45;4.95;;;;;;;;;;5041899;28;20032;-75
2023/08/13 11:11:38;;;;;;;5.65;5.15;;;;;;;;;;5053049;28;20112;-74
2023/08/13 11:14:03;;;;;;;8.15;5.05;;;;;;;;;;5059524;28;20028;-76
2023/08/13 11:16:28;;;;;;;5.30;4.90;;;;;;;;;;5048809;28;20134;-71
2023/08/13 11:18:54;;;;;;;5.93;5.18;;;;;;;;;;5040061;28;20052;-73
2023/08/13 11:21:20;;;;;;;6.15;4.68;;;;;;;;;;5059087;28;20024;-71
2023/08/13 11:23:45;;;;;;;7.80;4.60;;;;;;;;;;5055290;28;20531;-78
2023/08/13 11:26:10;;;;;;;5.85;4.57;;;;;;;;;;5055701;28;20166;-73
2023/08/13 11:28:36;;;;;;;5.20;4.75;;;;;;;;;;5051084;28;20051;-74
2023/08/13 11:31:01;;;;;;;5.25;4.75;;;;;;;;;;5039063;28;20016;-73
2023/08/13 11:33:26;;;;;;;5.40;4.82;;;;;;;;;;5050890;28;20024;-75
2023/08/13 11:35:53;;;;;;;6.60;4.90;;;;;;;;;;5049035;28;20016;-73
2023/08/13 11:38:19;;;;;;;4.40;4.00;;;;;;;;;;5042551;28;20024;-76
2023/08/13 11:40:44;;;;;;;5.13;4.53;;;;;;;;;;5043718;28;20114;-75
2023/08/13 11:43:10;;;;;;;5.82;4.20;;;;;;;;;;5039360;28;20142;-75
2023/08/13 11:45:36;;;;;;;8.38;4.60;;;;;;;;;;5048385;28;20139;-74
2023/08/13 11:48:20;;;;;;;5.00;4.38;;;;;;;;;;5048932;28;20037;-74
2023/08/13 11:50:47;;;;;;;4.38;4.00;;;;;;;;;;5047797;28;20443;-73
2023/08/13 11:53:13;;;;;;;5.68;4.10;;;;;;;;;;5044480;28;20379;-74
2023/08/13 11:55:39;;;;;;;3.83;3.53;;;;;;;;;;5043180;28;20123;-75
2023/08/13 11:58:05;;;;;;;4.53;4.07;;;;;;;;;;5056441;28;20034;-74
2023/08/13 12:00:31;;;;;;;6.22;3.92;;;;;;;;;;5047070;28;20036;-75
2023/08/13 12:02:57;;;;;;;4.15;3.85;;;;;;;;;;5035946;28;20112;-75
2023/08/13 12:05:30;;;;;;;4.18;3.65;;;;;;;;;;5037900;28;20025;-76
2023/08/13 12:07:56;;;;;;;4.10;3.80;;;;;;;;;;5041462;28;20035;-76
2023/08/13 12:10:21;;;;;;;3.85;3.42;;;;;;;;;;5038729;28;20438;-75
2023/08/13 12:12:47;;;;;;;5.78;3.83;;;;;;;;;;5057722;28;20036;-74
2023/08/13 12:15:12;;;;;;;4.32;3.47;;;;;;;;;;5042110;28;20554;-79
2023/08/13 12:17:37;;;;;;;5.13;3.72;;;;;;;;;;5040707;28;20029;-74
2023/08/13 12:20:03;;;;;;;4.10;3.70;;;;;;;;;;5039102;28;20037;-76
2023/08/13 12:22:29;;;;;;;10.75;3.80;;;;;;;;;;5054284;28;20059;-78
2023/08/13 12:24:54;;;;;;;4.68;3.80;;;;;;;;;;5054396;28;20025;-80
2023/08/13 12:27:20;;;;;;;4.25;3.85;;;;;;;;;;5044547;28;20043;-76
2023/08/13 12:29:45;;;;;;;3.72;3.40;;;;;;;;;;5043739;28;20043;-82
2023/08/13 12:32:10;;;;;;;3.53;3.33;;;;;;;;;;5054025;28;20479;-82
2023/08/13 12:34:36;;;;;;;4.20;3.80;;;;;;;;;;5056589;28;20102;-77
2023/08/13 12:37:01;;;;;;;4.32;3.83;;;;;;;;;;5056980;28;20032;-76
2023/08/13 12:39:26;;;;;;;4.10;3.70;;;;;;;;;;4982210;28;1805425;-75
2023/08/13 12:41:52;;;;;;;3.67;3.38;;;;;;;;;;5041728;28;20024;-77
2023/08/13 12:44:17;;;;;;;4.30;3.90;;;;;;;;;;5046728;28;20118;-79
2023/08/13 12:46:42;;;;;;;5.50;3.70;;;;;;;;;;5049320;28;20021;-76
2023/08/13 12:49:08;;;;;;;4.07;3.75;;;;;;;;;;5040574;28;20488;-76
2023/08/13 12:51:33;;;;;;;5.05;3.60;;;;;;;;;;5057760;28;20485;-74
2023/08/13 12:53:58;;;;;;;4.63;3.50;;;;;;;;;;5053672;28;20107;-77
2023/08/13 12:56:24;;;;;;;4.15;3.75;;;;;;;;;;5046979;28;20020;-79
2023/08/13 12:58:49;;;;;;;4.20;3.80;;;;;;;;;;5046727;28;21222;-76
2023/08/13 13:01:14;;;;;;;4.38;3.90;;;;;;;;;;5052895;28;20016;-76
2023/08/13 13:03:40;;;;;;;5.18;3.60;;;;;;;;;;5057893;28;20557;-75
2023/08/13 13:06:05;;;;;;;4.15;3.72;;;;;;;;;;5045119;28;20460;-76
2023/08/13 13:08:30;;;;;;;4.75;3.88;;;;;;;;;;5055284;28;24092;-77
2023/08/13 13:10:56;;;;;;;4.25;3.72;;;;;;;;;;5054770;28;20425;-77
2023/08/13 13:13:21;;;;;;;4.22;3.35;;;;;;;;;;5059152;28;20522;-77
2023/08/13 13:15:46;;;;;;;5.22;3.88;;;;;;;;;;5057293;28;20466;-77
2023/08/13 13:18:12;;;;;;;4.30;3.88;;;;;;;;;;5056703;28;20086;-78
2023/08/13 13:20:37;;;;;;;4.47;3.78;;;;;;;;;;5054450;28;20043;-78
2023/08/13 13:23:03;;;;;;;5.68;3.75;;;;;;;;;;5055582;28;20024;-79
2023/08/13 13:25:28;;;;;;;4.32;3.63;;;;;;;;;;5054703;28;20032;-77
2023/08/13 13:27:54;;;;;;;3.88;3.50;;;;;;;;;;5040502;28;20016;-76
2023/08/13 13:30:19;;;;;;;3.80;3.50;;;;;;;;;;5060102;28;20116;-76
2023/08/13 13:32:45;;;;;;;3.90;3.60;;;;;;;;;;5058844;28;20059;-78
2023/08/13 13:35:10;;;;;;;4.22;3.55;;;;;;;;;;5049211;28;20032;-79
2023/08/13 13:37:36;;;;;;;5.55;3.80;;;;;;;;;;5046233;28;21828;-78
2023/08/13 13:40:01;;;;;;;3.92;3.63;;;;;;;;;;5049393;28;20048;-79
2023/08/13 13:42:27;;;;;;;5.25;3.30;;;;;;;;;;5046999;28;20021;-81
2023/08/13 13:44:52;;;;;;;3.92;3.53;;;;;;;;;;5057543;28;20083;-84
2023/08/13 13:47:17;;;;;;;3.55;3.25;;;;;;;;;;5058817;28;20023;-81
2023/08/13 13:49:43;;;;;;;3.75;3.38;;;;;;;;;;5061220;28;20498;-82
2023/08/13 13:52:08;;;;;;;4.10;3.80;;;;;;;;;;5043203;28;20060;-76
2023/08/13 13:54:34;;;;;;;4.15;3.42;;;;;;;;;;5042498;28;20028;-76
2023/08/13 13:56:59;;;;;;;3.63;3.30;;;;;;;;;;5046437;28;20028;-76
2023/08/13 13:59:24;;;;;;;4.82;4.35;;;;;;;;;;5044139;28;20039;-79
2023/08/13 14:01:50;;;;;;;6.43;3.75;;;;;;;;;;5042794;28;20067;-81
2023/08/13 14:04:16;;;;;;;6.10;3.67;;;;;;;;;;5041259;28;20128;-80
2023/08/13 14:06:42;;;;;;;4.53;3.70;;;;;;;;;;5063620;28;20356;-80
2023/08/13 14:09:07;;;;;;;5.32;3.55;;;;;;;;;;5044711;28;20028;-75
2023/08/13 14:11:32;;;;;;;4.55;3.65;;;;;;;;;;5046707;28;20021;-79
2023/08/13 14:13:58;;;;;;;4.00;3.60;;;;;;;;;;5043355;28;20411;-76
2023/08/13 14:16:23;;;;;;;7.90;3.53;;;;;;;;;;5047418;28;20047;-76
2023/08/13 14:18:48;;;;;;;4.35;3.45;;;;;;;;;;5045187;28;20037;-79
2023/08/13 14:21:14;;;;;;;4.72;3.60;;;;;;;;;;5042450;28;20028;-77
2023/08/13 14:23:39;;;;;;;4.70;3.60;;;;;;;;;;5061375;28;20090;-77
2023/08/13 14:26:04;;;;;;;3.42;3.13;;;;;;;;;;5045252;28;20029;-75
2023/08/13 14:28:30;;;;;;;3.72;3.42;;;;;;;;;;5058007;28;20112;-75
2023/08/13 14:30:55;;;;;;;3.25;3.05;;;;;;;;;;5044208;28;20036;-77
2023/08/13 14:33:20;;;;;;;4.38;3.80;;;;;;;;;;5042690;28;20031;-76
2023/08/13 14:35:46;;;;;;;4.72;3.42;;;;;;;;;;5045003;28;20115;-80